sensor_id;sensor_type;location;lat;lon;timestamp;temperature;humidity
55016;DHT22;40919;43.236;21.590;2023-05-10T00:00:27;358.60;2329.60
55016;DHT22;40919;43.236;21.590;2023-05-10T00:02:53;358.50;2329.60
55016;DHT22;40919;43.236;21.590;2023-05-10T00:05:19;358.50;2329.60
55016;DHT22;40919;43.236;21.590;2023-05-10T00:07:44;358.50;2329.60
55016;DHT22;40919;43.236;21.590;2023-05-10T00:10:11;358.50;2329.60
55016;DHT22;40919;43.236;21.590;2023-05-10T00:12:37;358.50;2329.60
55016;DHT22;40919;43.236;21.590;2023-05-10T00:15:03;358.50;2329.60
55016;DHT22;40919;43.236;21.590;2023-05-10T00:17:29;358.50;2329.60
55016;DHT22;40919;43.236;21.590;2023-05-10T00:19:55;358.50;2329.60
55016;DHT22;40919;43.236;21.590;2023-05-10T00:22:21;358.50;2329.60
55016;DHT22;40919;43.236;21.590;2023-05-10T00:24:46;358.50;2329.60
55016;DHT22;40919;43.236;21.590;2023-05-10T00:27:12;358.50;2329.60
55016;DHT22;40919;43.236;21.590;2023-05-10T00:29:38;358.50;2329.60
55016;DHT22;40919;43.236;21.590;2023-05-10T00:32:04;358.50;2329.60
55016;DHT22;40919;43.236;21.590;2023-05-10T00:34:30;358.40;2329.60
55016;DHT22;40919;43.236;21.590;2023-05-10T00:36:56;358.50;2329.60
55016;DHT22;40919;43.236;21.590;2023-05-10T00:39:21;358.70;2329.60
55016;DHT22;40919;43.236;21.590;2023-05-10T00:41:47;358.70;2329.60
55016;DHT22;40919;43.236;21.590;2023-05-10T00:44:13;358.60;2329.60
55016;DHT22;40919;43.236;21.590;2023-05-10T00:46:39;358.40;2329.60
55016;DHT22;40919;43.236;21.590;2023-05-10T00:49:06;333.60;2329.60
55016;DHT22;40919;43.236;21.590;2023-05-10T00:51:32;333.40;2329.60
55016;DHT22;40919;43.236;21.590;2023-05-10T00:53:58;333.40;2329.60
55016;DHT22;40919;43.236;21.590;2023-05-10T00:56:25;333.20;2329.60
55016;DHT22;40919;43.236;21.590;2023-05-10T00:58:52;333.40;2329.60
55016;DHT22;40919;43.236;21.590;2023-05-10T01:01:19;333.30;2329.60
55016;DHT22;40919;43.236;21.590;2023-05-10T01:03:45;333.40;2329.60
55016;DHT22;40919;43.236;21.590;2023-05-10T01:06:12;333.60;2329.60
55016;DHT22;40919;43.236;21.590;2023-05-10T01:08:39;333.50;2329.60
55016;DHT22;40919;43.236;21.590;2023-05-10T01:11:05;333.40;2329.60
55016;DHT22;40919;43.236;21.590;2023-05-10T01:16:00;333.60;2329.60
55016;DHT22;40919;43.236;21.590;2023-05-10T01:18:33;333.60;2329.60
55016;DHT22;40919;43.236;21.590;2023-05-10T01:34:23;358.40;2329.60
55016;DHT22;40919;43.236;21.590;2023-05-10T01:37:21;358.40;2329.60
55016;DHT22;40919;43.236;21.590;2023-05-10T01:39:57;358.50;2329.60
55016;DHT22;40919;43.236;21.590;2023-05-10T01:42:28;358.40;2329.60
55016;DHT22;40919;43.236;21.590;2023-05-10T01:48:17;358.90;2329.60
55016;DHT22;40919;43.236;21.590;2023-05-10T01:50:45;333.60;2329.60
55016;DHT22;40919;43.236;21.590;2023-05-10T01:53:13;333.60;2329.60
55016;DHT22;40919;43.236;21.590;2023-05-10T01:55:46;333.70;2329.60
55016;DHT22;40919;43.236;21.590;2023-05-10T01:58:22;358.40;2329.60
55016;DHT22;40919;43.236;21.590;2023-05-10T02:00:50;333.60;2329.60
55016;DHT22;40919;43.236;21.590;2023-05-10T02:03:18;333.70;2329.60
55016;DHT22;40919;43.236;21.590;2023-05-10T02:05:48;333.70;2329.60
55016;DHT22;40919;43.236;21.590;2023-05-10T02:08:15;358.40;2329.60
55016;DHT22;40919;43.236;21.590;2023-05-10T02:10:43;333.70;2329.60
55016;DHT22;40919;43.236;21.590;2023-05-10T02:13:11;333.70;2329.60
55016;DHT22;40919;43.236;21.590;2023-05-10T02:15:38;358.40;2329.60
55016;DHT22;40919;43.236;21.590;2023-05-10T02:18:06;358.40;2329.60
55016;DHT22;40919;43.236;21.590;2023-05-10T02:20:34;358.50;2329.60
55016;DHT22;40919;43.236;21.590;2023-05-10T02:23:01;358.50;2329.60
55016;DHT22;40919;43.236;21.590;2023-05-10T02:25:29;358.50;2329.60
55016;DHT22;40919;43.236;21.590;2023-05-10T02:27:56;358.50;2329.60
55016;DHT22;40919;43.236;21.590;2023-05-10T02:30:23;358.40;2329.60
55016;DHT22;40919;43.236;21.590;2023-05-10T02:32:51;333.70;2329.60
55016;DHT22;40919;43.236;21.590;2023-05-10T02:35:17;333.40;2329.60
55016;DHT22;40919;43.236;21.590;2023-05-10T02:37:45;333.40;2329.60
55016;DHT22;40919;43.236;21.590;2023-05-10T02:40:13;333.40;2329.60
55016;DHT22;40919;43.236;21.590;2023-05-10T02:42:42;333.20;2329.60
55016;DHT22;40919;43.236;21.590;2023-05-10T02:45:14;333.50;2329.60
55016;DHT22;40919;43.236;21.590;2023-05-10T02:47:40;333.50;2329.60
55016;DHT22;40919;43.236;21.590;2023-05-10T02:50:07;333.30;2329.60
55016;DHT22;40919;43.236;21.590;2023-05-10T02:52:44;333.70;2329.60
55016;DHT22;40919;43.236;21.590;2023-05-10T02:55:13;333.20;2329.60
55016;DHT22;40919;43.236;21.590;2023-05-10T02:57:51;333.10;2329.60
55016;DHT22;40919;43.236;21.590;2023-05-10T03:00:17;333.30;2329.60
55016;DHT22;40919;43.236;21.590;2023-05-10T03:02:43;333.20;2329.60
55016;DHT22;40919;43.236;21.590;2023-05-10T03:05:09;333.00;2329.60
55016;DHT22;40919;43.236;21.590;2023-05-10T03:07:35;333.20;2329.60
55016;DHT22;40919;43.236;21.590;2023-05-10T03:10:02;332.90;2329.60
55016;DHT22;40919;43.236;21.590;2023-05-10T03:18:09;333.40;2329.60
55016;DHT22;40919;43.236;21.590;2023-05-10T03:20:48;333.40;2329.60
55016;DHT22;40919;43.236;21.590;2023-05-10T03:25:48;333.50;2329.60
55016;DHT22;40919;43.236;21.590;2023-05-10T03:28:16;333.40;2329.60
55016;DHT22;40919;43.236;21.590;2023-05-10T03:30:43;333.40;2329.60
55016;DHT22;40919;43.236;21.590;2023-05-10T03:33:09;333.10;2329.60
55016;DHT22;40919;43.236;21.590;2023-05-10T03:35:36;333.30;2329.60
55016;DHT22;40919;43.236;21.590;2023-05-10T03:38:02;333.20;2329.60
55016;DHT22;40919;43.236;21.590;2023-05-10T03:40:28;333.20;2329.60
55016;DHT22;40919;43.236;21.590;2023-05-10T03:42:57;333.30;2329.60
55016;DHT22;40919;43.236;21.590;2023-05-10T03:45:23;308.00;2304.00
55016;DHT22;40919;43.236;21.590;2023-05-10T03:47:48;333.20;2329.60
55016;DHT22;40919;43.236;21.590;2023-05-10T03:50:14;333.40;2329.60
55016;DHT22;40919;43.236;21.590;2023-05-10T03:52:40;333.50;2329.60
55016;DHT22;40919;43.236;21.590;2023-05-10T03:55:07;333.60;2329.60
55016;DHT22;40919;43.236;21.590;2023-05-10T03:57:33;333.60;2329.60
55016;DHT22;40919;43.236;21.590;2023-05-10T03:59:59;333.70;2329.60
55016;DHT22;40919;43.236;21.590;2023-05-10T04:02:25;333.70;2329.60
55016;DHT22;40919;43.236;21.590;2023-05-10T04:04:51;333.70;2329.60
55016;DHT22;40919;43.236;21.590;2023-05-10T04:07:17;358.40;2329.60
55016;DHT22;40919;43.236;21.590;2023-05-10T04:09:43;333.70;2329.60
55016;DHT22;40919;43.236;21.590;2023-05-10T04:12:09;358.40;2329.60
55016;DHT22;40919;43.236;21.590;2023-05-10T04:14:35;333.60;2329.60
55016;DHT22;40919;43.236;21.590;2023-05-10T04:17:01;333.40;2329.60
55016;DHT22;40919;43.236;21.590;2023-05-10T04:19:30;333.50;2329.60
55016;DHT22;40919;43.236;21.590;2023-05-10T04:21:57;333.50;2329.60
55016;DHT22;40919;43.236;21.590;2023-05-10T04:24:23;333.60;2329.60
55016;DHT22;40919;43.236;21.590;2023-05-10T04:26:49;333.50;2329.60
55016;DHT22;40919;43.236;21.590;2023-05-10T04:29:15;333.60;2329.60
55016;DHT22;40919;43.236;21.590;2023-05-10T04:31:40;333.60;2329.60
55016;DHT22;40919;43.236;21.590;2023-05-10T04:34:06;333.40;2329.60
55016;DHT22;40919;43.236;21.590;2023-05-10T04:36:32;333.30;2329.60
55016;DHT22;40919;43.236;21.590;2023-05-10T04:39:00;333.40;2329.60
55016;DHT22;40919;43.236;21.590;2023-05-10T04:41:26;333.40;2329.60
55016;DHT22;40919;43.236;21.590;2023-05-10T04:43:52;333.60;2329.60
55016;DHT22;40919;43.236;21.590;2023-05-10T04:46:18;333.70;2329.60
55016;DHT22;40919;43.236;21.590;2023-05-10T04:48:44;333.70;2329.60
55016;DHT22;40919;43.236;21.590;2023-05-10T04:51:09;333.70;2329.60
55016;DHT22;40919;43.236;21.590;2023-05-10T04:53:35;358.40;2329.60
55016;DHT22;40919;43.236;21.590;2023-05-10T04:56:01;358.40;2329.60
55016;DHT22;40919;43.236;21.590;2023-05-10T04:58:27;358.40;2329.60
55016;DHT22;40919;43.236;21.590;2023-05-10T05:00:53;333.70;2329.60
55016;DHT22;40919;43.236;21.590;2023-05-10T05:03:18;358.40;2329.60
55016;DHT22;40919;43.236;21.590;2023-05-10T05:05:44;358.50;2329.60
55016;DHT22;40919;43.236;21.590;2023-05-10T05:08:10;358.50;2329.60
55016;DHT22;40919;43.236;21.590;2023-05-10T05:10:36;358.50;2329.60
55016;DHT22;40919;43.236;21.590;2023-05-10T05:13:02;358.50;2329.60
55016;DHT22;40919;43.236;21.590;2023-05-10T05:15:27;358.50;2329.60
55016;DHT22;40919;43.236;21.590;2023-05-10T05:17:53;358.60;2329.60
55016;DHT22;40919;43.236;21.590;2023-05-10T05:20:19;358.60;2329.60
55016;DHT22;40919;43.236;21.590;2023-05-10T05:22:45;358.60;2329.60
55016;DHT22;40919;43.236;21.590;2023-05-10T05:25:11;358.60;2329.60
55016;DHT22;40919;43.236;21.590;2023-05-10T05:27:37;359.00;2329.60
55016;DHT22;40919;43.236;21.590;2023-05-10T05:30:03;358.60;2329.60
55016;DHT22;40919;43.236;21.590;2023-05-10T05:32:29;358.60;2329.60
55016;DHT22;40919;43.236;21.590;2023-05-10T05:34:55;358.60;2329.60
55016;DHT22;40919;43.236;21.590;2023-05-10T05:37:21;358.60;2329.60
55016;DHT22;40919;43.236;21.590;2023-05-10T05:39:48;358.60;2329.60
55016;DHT22;40919;43.236;21.590;2023-05-10T05:42:14;358.70;2329.60
55016;DHT22;40919;43.236;21.590;2023-05-10T05:44:42;358.70;2329.60
55016;DHT22;40919;43.236;21.590;2023-05-10T05:47:07;358.70;2329.60
55016;DHT22;40919;43.236;21.590;2023-05-10T05:49:33;358.70;2329.60
55016;DHT22;40919;43.236;21.590;2023-05-10T05:52:00;358.80;2329.60
55016;DHT22;40919;43.236;21.590;2023-05-10T05:54:26;358.80;2329.60
55016;DHT22;40919;43.236;21.590;2023-05-10T05:56:56;358.80;2329.60
55016;DHT22;40919;43.236;21.590;2023-05-10T05:59:22;358.80;2329.60
55016;DHT22;40919;43.236;21.590;2023-05-10T06:01:49;358.80;2329.60
55016;DHT22;40919;43.236;21.590;2023-05-10T06:04:14;358.90;2329.60
55016;DHT22;40919;43.236;21.590;2023-05-10T06:06:40;358.90;2329.60
55016;DHT22;40919;43.236;21.590;2023-05-10T06:09:06;358.80;2329.60
55016;DHT22;40919;43.236;21.590;2023-05-10T06:11:32;358.90;2329.60
55016;DHT22;40919;43.236;21.590;2023-05-10T06:13:58;358.90;2329.60
55016;DHT22;40919;43.236;21.590;2023-05-10T06:16:24;358.90;2329.60
55016;DHT22;40919;43.236;21.590;2023-05-10T06:18:50;358.90;2329.60
55016;DHT22;40919;43.236;21.590;2023-05-10T06:21:16;358.90;2329.60
55016;DHT22;40919;43.236;21.590;2023-05-10T06:23:42;359.00;2329.60
55016;DHT22;40919;43.236;21.590;2023-05-10T06:26:08;359.00;2329.60
55016;DHT22;40919;43.236;21.590;2023-05-10T06:28:34;384.40;2329.60
55016;DHT22;40919;43.236;21.590;2023-05-10T06:31:00;359.00;2329.60
55016;DHT22;40919;43.236;21.590;2023-05-10T06:33:26;359.00;2329.60
55016;DHT22;40919;43.236;21.590;2023-05-10T06:35:52;359.00;2329.60
55016;DHT22;40919;43.236;21.590;2023-05-10T06:38:17;359.00;2329.60
55016;DHT22;40919;43.236;21.590;2023-05-10T06:40:43;359.00;2329.60
55016;DHT22;40919;43.236;21.590;2023-05-10T06:43:10;359.00;2329.60
55016;DHT22;40919;43.236;21.590;2023-05-10T06:45:36;359.10;2329.60
55016;DHT22;40919;43.236;21.590;2023-05-10T06:48:02;359.10;2329.60
55016;DHT22;40919;43.236;21.590;2023-05-10T06:50:28;359.10;2329.60
55016;DHT22;40919;43.236;21.590;2023-05-10T06:52:54;359.10;2329.60
55016;DHT22;40919;43.236;21.590;2023-05-10T06:55:21;359.20;2329.60
55016;DHT22;40919;43.236;21.590;2023-05-10T06:57:47;359.10;2329.60
55016;DHT22;40919;43.236;21.590;2023-05-10T07:00:13;359.10;2329.60
55016;DHT22;40919;43.236;21.590;2023-05-10T07:02:40;359.10;2329.60
55016;DHT22;40919;43.236;21.590;2023-05-10T07:05:06;359.10;2329.60
55016;DHT22;40919;43.236;21.590;2023-05-10T07:07:31;359.10;2329.60
55016;DHT22;40919;43.236;21.590;2023-05-10T07:09:57;359.20;2329.60
55016;DHT22;40919;43.236;21.590;2023-05-10T07:12:24;359.20;2329.60
55016;DHT22;40919;43.236;21.590;2023-05-10T07:14:50;359.30;2329.60
55016;DHT22;40919;43.236;21.590;2023-05-10T07:17:15;384.00;2329.60
55016;DHT22;40919;43.236;21.590;2023-05-10T07:19:41;384.10;2329.60
55016;DHT22;40919;43.236;21.590;2023-05-10T07:22:07;384.10;2329.60
55016;DHT22;40919;43.236;21.590;2023-05-10T07:24:33;384.10;2329.60
55016;DHT22;40919;43.236;21.590;2023-05-10T07:26:59;384.10;2329.60
55016;DHT22;40919;43.236;21.590;2023-05-10T07:29:25;384.10;2329.60
55016;DHT22;40919;43.236;21.590;2023-05-10T07:31:51;384.10;2329.60
55016;DHT22;40919;43.236;21.590;2023-05-10T07:34:17;359.00;2329.60
55016;DHT22;40919;43.236;21.590;2023-05-10T07:36:43;384.00;2329.60
55016;DHT22;40919;43.236;21.590;2023-05-10T07:39:09;384.00;2329.60
55016;DHT22;40919;43.236;21.590;2023-05-10T07:41:35;384.10;2329.60
55016;DHT22;40919;43.236;21.590;2023-05-10T07:44:02;384.00;2329.60
55016;DHT22;40919;43.236;21.590;2023-05-10T07:46:28;384.10;2329.60
55016;DHT22;40919;43.236;21.590;2023-05-10T07:48:53;384.10;2329.60
55016;DHT22;40919;43.236;21.590;2023-05-10T07:51:19;384.10;2329.60
55016;DHT22;40919;43.236;21.590;2023-05-10T07:53:45;384.00;2329.60
55016;DHT22;40919;43.236;21.590;2023-05-10T07:56:29;384.00;2329.60
55016;DHT22;40919;43.236;21.590;2023-05-10T07:58:56;384.00;2329.60
55016;DHT22;40919;43.236;21.590;2023-05-10T08:01:22;384.10;2329.60
55016;DHT22;40919;43.236;21.590;2023-05-10T08:03:48;384.10;2329.60
55016;DHT22;40919;43.236;21.590;2023-05-10T08:06:16;384.40;2329.60
55016;DHT22;40919;43.236;21.590;2023-05-10T08:08:42;384.20;2329.60
55016;DHT22;40919;43.236;21.590;2023-05-10T08:11:08;384.20;2329.60
55016;DHT22;40919;43.236;21.590;2023-05-10T08:13:34;384.20;2329.60
55016;DHT22;40919;43.236;21.590;2023-05-10T08:16:00;384.00;2329.60
55016;DHT22;40919;43.236;21.590;2023-05-10T08:18:26;384.30;2329.60
55016;DHT22;40919;43.236;21.590;2023-05-10T08:20:52;384.30;2329.60
55016;DHT22;40919;43.236;21.590;2023-05-10T08:23:17;384.40;2329.60
55016;DHT22;40919;43.236;21.590;2023-05-10T08:25:43;384.30;2329.60
55016;DHT22;40919;43.236;21.590;2023-05-10T08:28:09;384.40;2329.60
55016;DHT22;40919;43.236;21.590;2023-05-10T08:30:35;384.40;2329.60
55016;DHT22;40919;43.236;21.590;2023-05-10T08:33:01;384.40;2329.60
55016;DHT22;40919;43.236;21.590;2023-05-10T08:35:26;384.40;2329.60
55016;DHT22;40919;43.236;21.590;2023-05-10T08:37:52;384.40;2329.60
55016;DHT22;40919;43.236;21.590;2023-05-10T08:40:19;384.40;2329.60
55016;DHT22;40919;43.236;21.590;2023-05-10T08:43:06;384.40;2329.60
55016;DHT22;40919;43.236;21.590;2023-05-10T08:45:36;384.50;2329.60
55016;DHT22;40919;43.236;21.590;2023-05-10T08:48:05;384.50;2329.60
55016;DHT22;40919;43.236;21.590;2023-05-10T08:50:34;384.50;2329.60
55016;DHT22;40919;43.236;21.590;2023-05-10T08:53:04;384.60;2329.60
55016;DHT22;40919;43.236;21.590;2023-05-10T08:55:30;384.70;2329.60
55016;DHT22;40919;43.236;21.590;2023-05-10T08:57:58;384.70;2329.60
55016;DHT22;40919;43.236;21.590;2023-05-10T09:00:25;384.80;2329.60
55016;DHT22;40919;43.236;21.590;2023-05-10T09:02:52;384.80;2329.60
55016;DHT22;40919;43.236;21.590;2023-05-10T09:05:18;384.80;2329.60
55016;DHT22;40919;43.236;21.590;2023-05-10T09:07:44;384.90;2329.60
55016;DHT22;40919;43.236;21.590;2023-05-10T09:10:11;384.90;2329.60
55016;DHT22;40919;43.236;21.590;2023-05-10T09:12:37;409.60;2355.20
55016;DHT22;40919;43.236;21.590;2023-05-10T09:15:04;409.60;2355.20
55016;DHT22;40919;43.236;21.590;2023-05-10T09:17:31;409.60;2355.20
55016;DHT22;40919;43.236;21.590;2023-05-10T09:20:00;409.60;2355.20
55016;DHT22;40919;43.236;21.590;2023-05-10T09:22:26;409.70;2355.20
55016;DHT22;40919;43.236;21.590;2023-05-10T09:25:14;409.70;2355.20
55016;DHT22;40919;43.236;21.590;2023-05-10T09:27:41;409.90;2355.20
55016;DHT22;40919;43.236;21.590;2023-05-10T09:30:10;410.00;2355.20
55016;DHT22;40919;43.236;21.590;2023-05-10T09:32:42;409.90;2355.20
55016;DHT22;40919;43.236;21.590;2023-05-10T09:35:17;410.00;2355.20
55016;DHT22;40919;43.236;21.590;2023-05-10T09:37:45;410.00;2355.20
55016;DHT22;40919;43.236;21.590;2023-05-10T09:40:19;410.00;2355.20
55016;DHT22;40919;43.236;21.590;2023-05-10T09:42:57;410.00;2355.20
55016;DHT22;40919;43.236;21.590;2023-05-10T09:45:25;410.20;2355.20
55016;DHT22;40919;43.236;21.590;2023-05-10T09:47:52;410.20;2355.20
55016;DHT22;40919;43.236;21.590;2023-05-10T09:50:19;410.20;2355.20
55016;DHT22;40919;43.236;21.590;2023-05-10T09:52:50;410.20;2355.20
55016;DHT22;40919;43.236;21.590;2023-05-10T09:55:19;410.20;2355.20
55016;DHT22;40919;43.236;21.590;2023-05-10T09:57:49;410.30;2355.20
55016;DHT22;40919;43.236;21.590;2023-05-10T10:00:19;410.30;2355.20
55016;DHT22;40919;43.236;21.590;2023-05-10T10:02:47;410.20;2355.20
55016;DHT22;40919;43.236;21.590;2023-05-10T10:05:13;410.30;2355.20
55016;DHT22;40919;43.236;21.590;2023-05-10T10:07:40;410.30;2355.20
55016;DHT22;40919;43.236;21.590;2023-05-10T10:10:07;410.30;2355.20
55016;DHT22;40919;43.236;21.590;2023-05-10T10:12:37;410.40;2355.20
55016;DHT22;40919;43.236;21.590;2023-05-10T10:15:03;410.20;2355.20
55016;DHT22;40919;43.236;21.590;2023-05-10T10:17:33;410.40;2355.20
55016;DHT22;40919;43.236;21.590;2023-05-10T10:20:02;410.40;2355.20
55016;DHT22;40919;43.236;21.590;2023-05-10T10:22:28;410.30;2355.20
55016;DHT22;40919;43.236;21.590;2023-05-10T10:24:54;410.50;2355.20
55016;DHT22;40919;43.236;21.590;2023-05-10T10:30:42;435.20;2355.20
55016;DHT22;40919;43.236;21.590;2023-05-10T10:33:54;410.50;2355.20
55016;DHT22;40919;43.236;21.590;2023-05-10T10:36:22;435.20;2355.20
55016;DHT22;40919;43.236;21.590;2023-05-10T10:41:50;435.20;2355.20
55016;DHT22;40919;43.236;21.590;2023-05-10T10:52:28;410.50;2355.20
55016;DHT22;40919;43.236;21.590;2023-05-10T10:55:10;410.50;2355.20
55016;DHT22;40919;43.236;21.590;2023-05-10T10:57:57;435.20;2355.20
55016;DHT22;40919;43.236;21.590;2023-05-10T11:00:28;435.20;2355.20
55016;DHT22;40919;43.236;21.590;2023-05-10T11:03:08;435.20;2355.20
55016;DHT22;40919;43.236;21.590;2023-05-10T11:08:25;435.30;2355.20
55016;DHT22;40919;43.236;21.590;2023-05-10T11:11:03;435.40;2355.20
55016;DHT22;40919;43.236;21.590;2023-05-10T11:18:54;435.60;2355.20
55016;DHT22;40919;43.236;21.590;2023-05-10T11:21:23;435.60;2355.20
55016;DHT22;40919;43.236;21.590;2023-05-10T11:23:53;435.50;2355.20
55016;DHT22;40919;43.236;21.590;2023-05-10T11:26:31;435.50;2355.20
55016;DHT22;40919;43.236;21.590;2023-05-10T11:28:57;435.50;2355.20
55016;DHT22;40919;43.236;21.590;2023-05-10T11:31:28;435.60;2355.20
55016;DHT22;40919;43.236;21.590;2023-05-10T11:33:56;435.50;2355.20
55016;DHT22;40919;43.236;21.590;2023-05-10T11:36:27;435.50;2355.20
55016;DHT22;40919;43.236;21.590;2023-05-10T11:38:54;435.50;2355.20
55016;DHT22;40919;43.236;21.590;2023-05-10T11:41:21;435.50;2355.20
55016;DHT22;40919;43.236;21.590;2023-05-10T11:43:50;435.50;2355.20
55016;DHT22;40919;43.236;21.590;2023-05-10T11:46:17;435.60;2355.20
55016;DHT22;40919;43.236;21.590;2023-05-10T11:48:45;435.60;2355.20
55016;DHT22;40919;43.236;21.590;2023-05-10T11:51:11;435.70;2355.20
55016;DHT22;40919;43.236;21.590;2023-05-10T11:53:37;435.80;2355.20
55016;DHT22;40919;43.236;21.590;2023-05-10T11:56:10;435.90;2355.20
55016;DHT22;40919;43.236;21.590;2023-05-10T11:58:37;435.90;2355.20
55016;DHT22;40919;43.236;21.590;2023-05-10T12:01:04;435.90;2355.20
55016;DHT22;40919;43.236;21.590;2023-05-10T12:03:31;435.90;2355.20
55016;DHT22;40919;43.236;21.590;2023-05-10T12:05:57;435.90;2355.20
55016;DHT22;40919;43.236;21.590;2023-05-10T12:08:25;435.90;2355.20
55016;DHT22;40919;43.236;21.590;2023-05-10T12:10:52;435.90;2355.20
55016;DHT22;40919;43.236;21.590;2023-05-10T12:13:20;435.90;2355.20
55016;DHT22;40919;43.236;21.590;2023-05-10T12:15:46;435.90;2355.20
55016;DHT22;40919;43.236;21.590;2023-05-10T12:18:13;435.80;2355.20
55016;DHT22;40919;43.236;21.590;2023-05-10T12:20:40;435.80;2355.20
55016;DHT22;40919;43.236;21.590;2023-05-10T12:23:08;435.80;2355.20
55016;DHT22;40919;43.236;21.590;2023-05-10T12:25:36;435.70;2355.20
55016;DHT22;40919;43.236;21.590;2023-05-10T12:28:06;435.60;2355.20
55016;DHT22;40919;43.236;21.590;2023-05-10T12:30:34;435.50;2355.20
55016;DHT22;40919;43.236;21.590;2023-05-10T12:33:12;435.60;2355.20
55016;DHT22;40919;43.236;21.590;2023-05-10T12:38:38;435.60;2355.20
55016;DHT22;40919;43.236;21.590;2023-05-10T12:41:23;435.60;2355.20
55016;DHT22;40919;43.236;21.590;2023-05-10T12:43:51;435.70;2355.20
55016;DHT22;40919;43.236;21.590;2023-05-10T12:46:17;435.60;2355.20
55016;DHT22;40919;43.236;21.590;2023-05-10T12:48:44;435.60;2355.20
55016;DHT22;40919;43.236;21.590;2023-05-10T12:51:11;435.60;2355.20
55016;DHT22;40919;43.236;21.590;2023-05-10T12:53:39;435.60;2355.20
55016;DHT22;40919;43.236;21.590;2023-05-10T12:56:05;435.80;2355.20
55016;DHT22;40919;43.236;21.590;2023-05-10T12:58:31;435.80;2355.20
55016;DHT22;40919;43.236;21.590;2023-05-10T13:00:58;435.80;2355.20
55016;DHT22;40919;43.236;21.590;2023-05-10T13:03:24;435.60;2355.20
55016;DHT22;40919;43.236;21.590;2023-05-10T13:05:50;435.60;2355.20
55016;DHT22;40919;43.236;21.590;2023-05-10T13:08:16;435.60;2355.20
55016;DHT22;40919;43.236;21.590;2023-05-10T13:10:42;435.60;2355.20
55016;DHT22;40919;43.236;21.590;2023-05-10T13:13:08;435.50;2355.20
55016;DHT22;40919;43.236;21.590;2023-05-10T13:15:34;435.60;2355.20
55016;DHT22;40919;43.236;21.590;2023-05-10T13:18:00;435.50;2355.20
55016;DHT22;40919;43.236;21.590;2023-05-10T13:20:26;435.50;2355.20
55016;DHT22;40919;43.236;21.590;2023-05-10T13:22:52;435.50;2355.20
55016;DHT22;40919;43.236;21.590;2023-05-10T13:25:18;435.30;2355.20
55016;DHT22;40919;43.236;21.590;2023-05-10T13:27:46;435.30;2355.20
55016;DHT22;40919;43.236;21.590;2023-05-10T13:30:12;435.30;2355.20
55016;DHT22;40919;43.236;21.590;2023-05-10T13:32:38;435.30;2355.20
55016;DHT22;40919;43.236;21.590;2023-05-10T13:35:04;435.30;2355.20
55016;DHT22;40919;43.236;21.590;2023-05-10T13:37:31;435.40;2355.20
55016;DHT22;40919;43.236;21.590;2023-05-10T13:39:57;435.30;2355.20
55016;DHT22;40919;43.236;21.590;2023-05-10T13:42:23;435.20;2355.20
55016;DHT22;40919;43.236;21.590;2023-05-10T13:44:50;410.50;2355.20
55016;DHT22;40919;43.236;21.590;2023-05-10T13:47:16;410.50;2355.20
55016;DHT22;40919;43.236;21.590;2023-05-10T13:49:41;435.30;2355.20
55016;DHT22;40919;43.236;21.590;2023-05-10T13:52:08;435.30;2355.20
55016;DHT22;40919;43.236;21.590;2023-05-10T13:54:36;435.30;2355.20
55016;DHT22;40919;43.236;21.590;2023-05-10T13:57:02;435.30;2355.20
55016;DHT22;40919;43.236;21.590;2023-05-10T13:59:29;435.20;2355.20
55016;DHT22;40919;43.236;21.590;2023-05-10T14:01:57;435.30;2355.20
55016;DHT22;40919;43.236;21.590;2023-05-10T14:04:23;435.30;2355.20
55016;DHT22;40919;43.236;21.590;2023-05-10T14:06:49;435.30;2355.20
55016;DHT22;40919;43.236;21.590;2023-05-10T14:09:15;435.30;2355.20
55016;DHT22;40919;43.236;21.590;2023-05-10T14:11:42;435.30;2355.20
55016;DHT22;40919;43.236;21.590;2023-05-10T14:14:11;435.30;2355.20
55016;DHT22;40919;43.236;21.590;2023-05-10T14:16:38;410.40;2355.20
55016;DHT22;40919;43.236;21.590;2023-05-10T14:19:04;435.30;2355.20
55016;DHT22;40919;43.236;21.590;2023-05-10T14:21:30;435.30;2355.20
55016;DHT22;40919;43.236;21.590;2023-05-10T14:23:56;435.30;2355.20
55016;DHT22;40919;43.236;21.590;2023-05-10T14:26:22;435.30;2355.20
55016;DHT22;40919;43.236;21.590;2023-05-10T14:28:48;435.30;2355.20
55016;DHT22;40919;43.236;21.590;2023-05-10T14:31:14;435.30;2355.20
55016;DHT22;40919;43.236;21.590;2023-05-10T14:33:42;435.30;2355.20
55016;DHT22;40919;43.236;21.590;2023-05-10T14:36:08;435.30;2355.20
55016;DHT22;40919;43.236;21.590;2023-05-10T14:38:34;435.60;2355.20
55016;DHT22;40919;43.236;21.590;2023-05-10T14:41:00;435.30;2355.20
55016;DHT22;40919;43.236;21.590;2023-05-10T14:43:26;435.30;2355.20
55016;DHT22;40919;43.236;21.590;2023-05-10T14:45:53;435.30;2355.20
55016;DHT22;40919;43.236;21.590;2023-05-10T14:48:19;435.30;2355.20
55016;DHT22;40919;43.236;21.590;2023-05-10T14:50:46;435.30;2355.20
55016;DHT22;40919;43.236;21.590;2023-05-10T14:53:12;435.30;2355.20
55016;DHT22;40919;43.236;21.590;2023-05-10T14:55:38;435.30;2355.20
55016;DHT22;40919;43.236;21.590;2023-05-10T14:58:04;435.30;2355.20
55016;DHT22;40919;43.236;21.590;2023-05-10T15:00:30;435.30;2355.20
55016;DHT22;40919;43.236;21.590;2023-05-10T15:02:57;435.20;2355.20
55016;DHT22;40919;43.236;21.590;2023-05-10T15:05:23;435.30;2355.20
55016;DHT22;40919;43.236;21.590;2023-05-10T15:07:49;435.20;2355.20
55016;DHT22;40919;43.236;21.590;2023-05-10T15:10:14;435.20;2355.20
55016;DHT22;40919;43.236;21.590;2023-05-10T15:12:40;435.20;2355.20
55016;DHT22;40919;43.236;21.590;2023-05-10T15:15:06;435.20;2355.20
55016;DHT22;40919;43.236;21.590;2023-05-10T15:17:33;435.20;2355.20
55016;DHT22;40919;43.236;21.590;2023-05-10T15:19:59;435.20;2355.20
55016;DHT22;40919;43.236;21.590;2023-05-10T15:22:25;435.20;2355.20
55016;DHT22;40919;43.236;21.590;2023-05-10T15:24:53;435.20;2355.20
55016;DHT22;40919;43.236;21.590;2023-05-10T15:27:19;435.20;2355.20
55016;DHT22;40919;43.236;21.590;2023-05-10T15:29:45;410.50;2355.20